sensor_id;sensor_type;location;lat;lon;timestamp;P1;durP1;ratioP1;P2;durP2;ratioP2
11488;SDS011;5801;50.804;12.638;2022-07-29T00:01:16;3.85;;;1.63;;
11488;SDS011;5801;50.804;12.638;2022-07-29T00:03:42;1.58;;;1.25;;
11488;SDS011;5801;50.804;12.638;2022-07-29T00:06:07;3.83;;;1.30;;
11488;SDS011;5801;50.804;12.638;2022-07-29T00:08:33;3.20;;;1.40;;
11488;SDS011;5801;50.804;12.638;2022-07-29T00:10:59;2.20;;;1.40;;
11488;SDS011;5801;50.804;12.638;2022-07-29T00:13:24;2.20;;;1.70;;
11488;SDS011;5801;50.804;12.638;2022-07-29T00:15:50;1.98;;;1.35;;
11488;SDS011;5801;50.804;12.638;2022-07-29T00:18:16;2.40;;;1.58;;
11488;SDS011;5801;50.804;12.638;2022-07-29T00:20:42;2.05;;;1.63;;
11488;SDS011;5801;50.804;12.638;2022-07-29T00:23:07;2.78;;;1.67;;
11488;SDS011;5801;50.804;12.638;2022-07-29T00:25:33;4.43;;;3.75;;
11488;SDS011;5801;50.804;12.638;2022-07-29T00:27:59;9.40;;;5.38;;
11488;SDS011;5801;50.804;12.638;2022-07-29T00:30:24;7.82;;;3.40;;
11488;SDS011;5801;50.804;12.638;2022-07-29T00:32:50;5.10;;;3.53;;
11488;SDS011;5801;50.804;12.638;2022-07-29T00:35:16;14.43;;;6.63;;
11488;SDS011;5801;50.804;12.638;2022-07-29T00:38:00;13.70;;;5.30;;
11488;SDS011;5801;50.804;12.638;2022-07-29T00:40:26;14.02;;;6.20;;
11488;SDS011;5801;50.804;12.638;2022-07-29T00:42:51;13.25;;;6.25;;
11488;SDS011;5801;50.804;12.638;2022-07-29T00:45:18;11.25;;;5.30;;
11488;SDS011;5801;50.804;12.638;2022-07-29T00:47:44;13.65;;;7.05;;
11488;SDS011;5801;50.804;12.638;2022-07-29T00:50:10;13.95;;;6.95;;
11488;SDS011;5801;50.804;12.638;2022-07-29T00:52:37;12.57;;;6.90;;
11488;SDS011;5801;50.804;12.638;2022-07-29T00:55:05;14.10;;;6.28;;
11488;SDS011;5801;50.804;12.638;2022-07-29T00:57:33;9.75;;;5.90;;
11488;SDS011;5801;50.804;12.638;2022-07-29T00:59:59;14.82;;;6.45;;
11488;SDS011;5801;50.804;12.638;2022-07-29T01:02:25;7.93;;;5.70;;
11488;SDS011;5801;50.804;12.638;2022-07-29T01:04:51;9.73;;;5.57;;
11488;SDS011;5801;50.804;12.638;2022-07-29T01:07:17;8.32;;;5.15;;
11488;SDS011;5801;50.804;12.638;2022-07-29T01:09:44;8.05;;;5.05;;
11488;SDS011;5801;50.804;12.638;2022-07-29T01:12:10;6.35;;;4.20;;
11488;SDS011;5801;50.804;12.638;2022-07-29T01:14:38;9.68;;;4.28;;
11488;SDS011;5801;50.804;12.638;2022-07-29T01:17:10;12.30;;;4.70;;
11488;SDS011;5801;50.804;12.638;2022-07-29T01:19:50;5.68;;;4.38;;
11488;SDS011;5801;50.804;12.638;2022-07-29T01:22:25;7.95;;;3.88;;
11488;SDS011;5801;50.804;12.638;2022-07-29T01:25:08;6.05;;;4.03;;
11488;SDS011;5801;50.804;12.638;2022-07-29T01:30:25;8.00;;;3.75;;
11488;SDS011;5801;50.804;12.638;2022-07-29T01:32:54;7.90;;;4.38;;
11488;SDS011;5801;50.804;12.638;2022-07-29T01:35:25;9.93;;;3.30;;
11488;SDS011;5801;50.804;12.638;2022-07-29T01:38:05;6.00;;;3.63;;
11488;SDS011;5801;50.804;12.638;2022-07-29T01:40:54;5.07;;;3.20;;
11488;SDS011;5801;50.804;12.638;2022-07-29T01:43:36;3.67;;;2.90;;
11488;SDS011;5801;50.804;12.638;2022-07-29T01:46:09;4.72;;;3.17;;
11488;SDS011;5801;50.804;12.638;2022-07-29T01:51:09;8.10;;;2.50;;
11488;SDS011;5801;50.804;12.638;2022-07-29T01:53:55;5.57;;;3.47;;
11488;SDS011;5801;50.804;12.638;2022-07-29T01:56:31;4.18;;;2.75;;
11488;SDS011;5801;50.804;12.638;2022-07-29T01:58:58;3.50;;;2.63;;
11488;SDS011;5801;50.804;12.638;2022-07-29T02:01:25;3.97;;;2.50;;
11488;SDS011;5801;50.804;12.638;2022-07-29T02:03:52;5.65;;;2.50;;
11488;SDS011;5801;50.804;12.638;2022-07-29T02:06:20;3.22;;;2.63;;
11488;SDS011;5801;50.804;12.638;2022-07-29T02:08:47;5.75;;;3.53;;
11488;SDS011;5801;50.804;12.638;2022-07-29T02:11:15;5.82;;;3.53;;
11488;SDS011;5801;50.804;12.638;2022-07-29T02:13:40;3.85;;;2.92;;
11488;SDS011;5801;50.804;12.638;2022-07-29T02:16:08;6.60;;;2.95;;
11488;SDS011;5801;50.804;12.638;2022-07-29T02:18:35;4.60;;;2.72;;
11488;SDS011;5801;50.804;12.638;2022-07-29T02:21:02;4.35;;;2.95;;
11488;SDS011;5801;50.804;12.638;2022-07-29T02:23:28;4.25;;;2.65;;
11488;SDS011;5801;50.804;12.638;2022-07-29T02:25:57;5.85;;;2.78;;
11488;SDS011;5801;50.804;12.638;2022-07-29T02:28:25;4.63;;;2.58;;
11488;SDS011;5801;50.804;12.638;2022-07-29T02:30:54;4.38;;;2.70;;
11488;SDS011;5801;50.804;12.638;2022-07-29T02:33:22;5.28;;;3.30;;
11488;SDS011;5801;50.804;12.638;2022-07-29T02:35:49;3.28;;;2.47;;
11488;SDS011;5801;50.804;12.638;2022-07-29T02:38:17;4.00;;;2.85;;
11488;SDS011;5801;50.804;12.638;2022-07-29T02:41:15;6.57;;;3.00;;
11488;SDS011;5801;50.804;12.638;2022-07-29T02:43:48;6.95;;;2.95;;
11488;SDS011;5801;50.804;12.638;2022-07-29T02:46:19;6.22;;;2.42;;
11488;SDS011;5801;50.804;12.638;2022-07-29T02:48:48;10.00;;;3.08;;
11488;SDS011;5801;50.804;12.638;2022-07-29T02:51:23;7.70;;;2.97;;
11488;SDS011;5801;50.804;12.638;2022-07-29T02:53:57;5.05;;;2.60;;
11488;SDS011;5801;50.804;12.638;2022-07-29T02:56:27;12.10;;;3.60;;
11488;SDS011;5801;50.804;12.638;2022-07-29T02:59:00;6.10;;;2.53;;
11488;SDS011;5801;50.804;12.638;2022-07-29T03:01:30;5.03;;;2.88;;
11488;SDS011;5801;50.804;12.638;2022-07-29T03:03:57;5.63;;;2.95;;
11488;SDS011;5801;50.804;12.638;2022-07-29T03:06:27;4.38;;;2.72;;
11488;SDS011;5801;50.804;12.638;2022-07-29T03:08:54;7.05;;;2.97;;
11488;SDS011;5801;50.804;12.638;2022-07-29T03:11:20;3.78;;;2.50;;
11488;SDS011;5801;50.804;12.638;2022-07-29T03:13:46;5.60;;;2.90;;
11488;SDS011;5801;50.804;12.638;2022-07-29T03:16:12;6.75;;;2.78;;
11488;SDS011;5801;50.804;12.638;2022-07-29T03:18:38;3.40;;;2.70;;
11488;SDS011;5801;50.804;12.638;2022-07-29T03:21:04;4.28;;;2.80;;
11488;SDS011;5801;50.804;12.638;2022-07-29T03:23:30;5.68;;;2.58;;
11488;SDS011;5801;50.804;12.638;2022-07-29T03:25:56;5.22;;;3.20;;
11488;SDS011;5801;50.804;12.638;2022-07-29T03:28:22;5.30;;;3.47;;
11488;SDS011;5801;50.804;12.638;2022-07-29T03:30:48;6.65;;;3.10;;
11488;SDS011;5801;50.804;12.638;2022-07-29T03:33:14;4.03;;;2.97;;
11488;SDS011;5801;50.804;12.638;2022-07-29T03:35:40;8.88;;;3.60;;
11488;SDS011;5801;50.804;12.638;2022-07-29T03:38:06;6.28;;;2.38;;
11488;SDS011;5801;50.804;12.638;2022-07-29T03:40:38;9.18;;;3.33;;
11488;SDS011;5801;50.804;12.638;2022-07-29T03:43:15;7.43;;;3.20;;
11488;SDS011;5801;50.804;12.638;2022-07-29T03:45:42;4.25;;;2.88;;
11488;SDS011;5801;50.804;12.638;2022-07-29T03:48:12;4.43;;;2.95;;
11488;SDS011;5801;50.804;12.638;2022-07-29T03:50:39;5.63;;;3.03;;
11488;SDS011;5801;50.804;12.638;2022-07-29T03:53:05;3.53;;;2.70;;
11488;SDS011;5801;50.804;12.638;2022-07-29T03:55:32;6.43;;;2.85;;
11488;SDS011;5801;50.804;12.638;2022-07-29T03:58:02;4.00;;;2.70;;
11488;SDS011;5801;50.804;12.638;2022-07-29T04:00:28;7.28;;;2.92;;
11488;SDS011;5801;50.804;12.638;2022-07-29T04:02:55;7.20;;;3.20;;
11488;SDS011;5801;50.804;12.638;2022-07-29T04:05:22;4.93;;;2.72;;
11488;SDS011;5801;50.804;12.638;2022-07-29T04:07:48;5.22;;;3.13;;
11488;SDS011;5801;50.804;12.638;2022-07-29T04:10:14;5.07;;;2.88;;
11488;SDS011;5801;50.804;12.638;2022-07-29T04:12:40;5.13;;;2.97;;
11488;SDS011;5801;50.804;12.638;2022-07-29T04:15:06;4.53;;;2.92;;
11488;SDS011;5801;50.804;12.638;2022-07-29T04:17:32;6.07;;;2.60;;
11488;SDS011;5801;50.804;12.638;2022-07-29T04:19:58;11.15;;;3.03;;
11488;SDS011;5801;50.804;12.638;2022-07-29T04:22:24;3.08;;;2.40;;
11488;SDS011;5801;50.804;12.638;2022-07-29T04:24:49;4.78;;;2.65;;
11488;SDS011;5801;50.804;12.638;2022-07-29T04:27:15;3.55;;;2.78;;
11488;SDS011;5801;50.804;12.638;2022-07-29T04:29:41;4.63;;;2.95;;
11488;SDS011;5801;50.804;12.638;2022-07-29T04:32:06;8.23;;;2.92;;
11488;SDS011;5801;50.804;12.638;2022-07-29T04:34:32;2.75;;;2.42;;
11488;SDS011;5801;50.804;12.638;2022-07-29T04:36:57;6.85;;;2.80;;
11488;SDS011;5801;50.804;12.638;2022-07-29T04:39:23;5.35;;;3.22;;
11488;SDS011;5801;50.804;12.638;2022-07-29T04:41:49;10.15;;;2.90;;
11488;SDS011;5801;50.804;12.638;2022-07-29T04:44:15;7.82;;;2.80;;
11488;SDS011;5801;50.804;12.638;2022-07-29T04:46:41;6.65;;;3.00;;
11488;SDS011;5801;50.804;12.638;2022-07-29T04:49:06;4.28;;;3.05;;
11488;SDS011;5801;50.804;12.638;2022-07-29T04:51:32;6.95;;;2.92;;
11488;SDS011;5801;50.804;12.638;2022-07-29T04:53:58;5.05;;;2.78;;
11488;SDS011;5801;50.804;12.638;2022-07-29T04:56:24;8.05;;;3.40;;
11488;SDS011;5801;50.804;12.638;2022-07-29T04:58:49;3.70;;;2.28;;
11488;SDS011;5801;50.804;12.638;2022-07-29T05:01:15;5.75;;;2.67;;
11488;SDS011;5801;50.804;12.638;2022-07-29T05:03:41;5.30;;;2.58;;
11488;SDS011;5801;50.804;12.638;2022-07-29T05:06:07;5.60;;;3.05;;
11488;SDS011;5801;50.804;12.638;2022-07-29T05:08:33;10.02;;;2.83;;
11488;SDS011;5801;50.804;12.638;2022-07-29T05:10:58;10.80;;;3.33;;
11488;SDS011;5801;50.804;12.638;2022-07-29T05:13:24;5.72;;;3.03;;
11488;SDS011;5801;50.804;12.638;2022-07-29T05:15:49;7.53;;;3.03;;
11488;SDS011;5801;50.804;12.638;2022-07-29T05:18:15;4.07;;;2.58;;
11488;SDS011;5801;50.804;12.638;2022-07-29T05:20:40;5.95;;;2.70;;
11488;SDS011;5801;50.804;12.638;2022-07-29T05:23:06;4.15;;;2.72;;
11488;SDS011;5801;50.804;12.638;2022-07-29T05:25:32;8.75;;;2.97;;
11488;SDS011;5801;50.804;12.638;2022-07-29T05:27:58;7.07;;;2.85;;
11488;SDS011;5801;50.804;12.638;2022-07-29T05:30:24;4.32;;;2.78;;
11488;SDS011;5801;50.804;12.638;2022-07-29T05:32:49;7.40;;;2.90;;
11488;SDS011;5801;50.804;12.638;2022-07-29T05:35:15;3.05;;;2.40;;
11488;SDS011;5801;50.804;12.638;2022-07-29T05:37:41;17.92;;;3.15;;
11488;SDS011;5801;50.804;12.638;2022-07-29T05:40:07;15.18;;;2.72;;
11488;SDS011;5801;50.804;12.638;2022-07-29T05:42:33;20.35;;;3.45;;
11488;SDS011;5801;50.804;12.638;2022-07-29T05:44:59;27.25;;;3.53;;
11488;SDS011;5801;50.804;12.638;2022-07-29T05:47:25;25.42;;;4.35;;
11488;SDS011;5801;50.804;12.638;2022-07-29T05:49:51;27.92;;;3.88;;
11488;SDS011;5801;50.804;12.638;2022-07-29T05:52:17;10.95;;;3.55;;
11488;SDS011;5801;50.804;12.638;2022-07-29T05:54:43;22.60;;;3.83;;
11488;SDS011;5801;50.804;12.638;2022-07-29T05:57:18;35.53;;;3.90;;
11488;SDS011;5801;50.804;12.638;2022-07-29T05:59:46;28.95;;;4.22;;
11488;SDS011;5801;50.804;12.638;2022-07-29T06:02:12;38.33;;;5.15;;
11488;SDS011;5801;50.804;12.638;2022-07-29T06:04:37;54.40;;;5.13;;
11488;SDS011;5801;50.804;12.638;2022-07-29T06:07:03;49.22;;;5.50;;
11488;SDS011;5801;50.804;12.638;2022-07-29T06:09:29;45.15;;;4.28;;
11488;SDS011;5801;50.804;12.638;2022-07-29T06:11:55;36.65;;;4.93;;
11488;SDS011;5801;50.804;12.638;2022-07-29T06:14:22;39.60;;;4.78;;
11488;SDS011;5801;50.804;12.638;2022-07-29T06:16:48;27.17;;;3.97;;
11488;SDS011;5801;50.804;12.638;2022-07-29T06:19:13;16.02;;;3.65;;
11488;SDS011;5801;50.804;12.638;2022-07-29T06:21:42;8.85;;;3.90;;
11488;SDS011;5801;50.804;12.638;2022-07-29T06:24:08;10.98;;;3.30;;
11488;SDS011;5801;50.804;12.638;2022-07-29T06:26:35;13.15;;;3.88;;
11488;SDS011;5801;50.804;12.638;2022-07-29T06:29:01;25.10;;;3.95;;
11488;SDS011;5801;50.804;12.638;2022-07-29T06:31:26;22.45;;;3.42;;
11488;SDS011;5801;50.804;12.638;2022-07-29T06:33:52;15.88;;;3.78;;
11488;SDS011;5801;50.804;12.638;2022-07-29T06:36:17;51.88;;;5.18;;
11488;SDS011;5801;50.804;12.638;2022-07-29T06:38:43;46.97;;;4.75;;
11488;SDS011;5801;50.804;12.638;2022-07-29T06:41:09;26.95;;;4.53;;
11488;SDS011;5801;50.804;12.638;2022-07-29T06:43:38;45.35;;;4.55;;
11488;SDS011;5801;50.804;12.638;2022-07-29T06:46:15;26.88;;;4.43;;
11488;SDS011;5801;50.804;12.638;2022-07-29T06:48:42;9.95;;;2.70;;
11488;SDS011;5801;50.804;12.638;2022-07-29T06:51:09;19.00;;;3.25;;
11488;SDS011;5801;50.804;12.638;2022-07-29T06:53:36;9.90;;;2.80;;
11488;SDS011;5801;50.804;12.638;2022-07-29T06:56:03;16.70;;;2.78;;
11488;SDS011;5801;50.804;12.638;2022-07-29T06:58:30;29.17;;;4.25;;
11488;SDS011;5801;50.804;12.638;2022-07-29T07:00:56;27.35;;;3.60;;
11488;SDS011;5801;50.804;12.638;2022-07-29T07:03:22;13.70;;;2.83;;
11488;SDS011;5801;50.804;12.638;2022-07-29T07:05:48;40.88;;;3.92;;
11488;SDS011;5801;50.804;12.638;2022-07-29T07:08:14;29.83;;;3.60;;
11488;SDS011;5801;50.804;12.638;2022-07-29T07:10:41;31.90;;;3.90;;
11488;SDS011;5801;50.804;12.638;2022-07-29T07:13:07;26.17;;;3.85;;
11488;SDS011;5801;50.804;12.638;2022-07-29T07:15:33;40.58;;;4.50;;
11488;SDS011;5801;50.804;12.638;2022-07-29T07:17:59;17.42;;;3.83;;
11488;SDS011;5801;50.804;12.638;2022-07-29T07:20:24;8.20;;;3.17;;
11488;SDS011;5801;50.804;12.638;2022-07-29T07:22:50;12.02;;;2.60;;
11488;SDS011;5801;50.804;12.638;2022-07-29T07:25:16;4.25;;;2.70;;
11488;SDS011;5801;50.804;12.638;2022-07-29T07:27:43;6.15;;;2.88;;
11488;SDS011;5801;50.804;12.638;2022-07-29T07:30:09;6.97;;;2.97;;
11488;SDS011;5801;50.804;12.638;2022-07-29T07:32:35;9.20;;;3.15;;
11488;SDS011;5801;50.804;12.638;2022-07-29T07:35:02;11.63;;;3.25;;
11488;SDS011;5801;50.804;12.638;2022-07-29T07:37:29;17.42;;;3.00;;
11488;SDS011;5801;50.804;12.638;2022-07-29T07:39:55;20.00;;;4.15;;
11488;SDS011;5801;50.804;12.638;2022-07-29T07:42:21;15.73;;;4.10;;
11488;SDS011;5801;50.804;12.638;2022-07-29T07:44:47;22.48;;;3.45;;
11488;SDS011;5801;50.804;12.638;2022-07-29T07:47:13;9.10;;;3.20;;
11488;SDS011;5801;50.804;12.638;2022-07-29T07:49:39;20.10;;;3.35;;
11488;SDS011;5801;50.804;12.638;2022-07-29T07:52:05;24.90;;;4.10;;
11488;SDS011;5801;50.804;12.638;2022-07-29T07:54:30;6.55;;;3.72;;
11488;SDS011;5801;50.804;12.638;2022-07-29T07:56:56;8.05;;;3.65;;
11488;SDS011;5801;50.804;12.638;2022-07-29T07:59:22;14.57;;;3.58;;
11488;SDS011;5801;50.804;12.638;2022-07-29T08:01:48;28.30;;;4.05;;
11488;SDS011;5801;50.804;12.638;2022-07-29T08:04:14;33.95;;;4.60;;
11488;SDS011;5801;50.804;12.638;2022-07-29T08:06:40;18.30;;;4.10;;
11488;SDS011;5801;50.804;12.638;2022-07-29T08:09:06;26.42;;;3.85;;
11488;SDS011;5801;50.804;12.638;2022-07-29T08:11:31;12.68;;;3.58;;
11488;SDS011;5801;50.804;12.638;2022-07-29T08:13:57;14.65;;;3.60;;
11488;SDS011;5801;50.804;12.638;2022-07-29T08:16:23;22.83;;;3.80;;
11488;SDS011;5801;50.804;12.638;2022-07-29T08:18:50;7.15;;;3.00;;
11488;SDS011;5801;50.804;12.638;2022-07-29T08:21:16;16.60;;;3.40;;
11488;SDS011;5801;50.804;12.638;2022-07-29T08:23:43;6.57;;;2.78;;
11488;SDS011;5801;50.804;12.638;2022-07-29T08:26:17;11.00;;;3.20;;
11488;SDS011;5801;50.804;12.638;2022-07-29T08:28:45;6.95;;;2.40;;
11488;SDS011;5801;50.804;12.638;2022-07-29T08:31:13;3.83;;;2.70;;
11488;SDS011;5801;50.804;12.638;2022-07-29T08:33:39;7.50;;;2.58;;
11488;SDS011;5801;50.804;12.638;2022-07-29T08:36:05;7.43;;;2.45;;
11488;SDS011;5801;50.804;12.638;2022-07-29T08:38:31;5.65;;;2.90;;
11488;SDS011;5801;50.804;12.638;2022-07-29T08:40:58;7.50;;;2.50;;
11488;SDS011;5801;50.804;12.638;2022-07-29T08:43:25;3.63;;;2.40;;
11488;SDS011;5801;50.804;12.638;2022-07-29T08:45:51;2.55;;;2.15;;
11488;SDS011;5801;50.804;12.638;2022-07-29T08:48:18;16.17;;;2.47;;
11488;SDS011;5801;50.804;12.638;2022-07-29T08:50:46;4.30;;;2.25;;
11488;SDS011;5801;50.804;12.638;2022-07-29T08:53:13;5.32;;;2.40;;
11488;SDS011;5801;50.804;12.638;2022-07-29T08:55:45;3.85;;;2.13;;
11488;SDS011;5801;50.804;12.638;2022-07-29T08:58:11;5.22;;;2.55;;
11488;SDS011;5801;50.804;12.638;2022-07-29T09:00:41;8.10;;;2.42;;
11488;SDS011;5801;50.804;12.638;2022-07-29T09:03:08;7.05;;;2.30;;
11488;SDS011;5801;50.804;12.638;2022-07-29T09:05:37;5.30;;;2.60;;
11488;SDS011;5801;50.804;12.638;2022-07-29T09:08:05;4.38;;;2.45;;
11488;SDS011;5801;50.804;12.638;2022-07-29T09:10:31;3.95;;;2.10;;
11488;SDS011;5801;50.804;12.638;2022-07-29T09:12:57;4.07;;;2.00;;
11488;SDS011;5801;50.804;12.638;2022-07-29T09:15:24;4.63;;;2.40;;
11488;SDS011;5801;50.804;12.638;2022-07-29T09:17:49;8.23;;;2.60;;
11488;SDS011;5801;50.804;12.638;2022-07-29T09:20:20;2.63;;;2.03;;
11488;SDS011;5801;50.804;12.638;2022-07-29T09:22:47;7.13;;;2.55;;
11488;SDS011;5801;50.804;12.638;2022-07-29T09:25:14;2.20;;;2.00;;
11488;SDS011;5801;50.804;12.638;2022-07-29T09:28:05;4.57;;;2.40;;
11488;SDS011;5801;50.804;12.638;2022-07-29T09:30:34;4.68;;;2.80;;
11488;SDS011;5801;50.804;12.638;2022-07-29T09:33:02;8.02;;;2.90;;
11488;SDS011;5801;50.804;12.638;2022-07-29T09:35:28;5.05;;;2.40;;
11488;SDS011;5801;50.804;12.638;2022-07-29T09:37:55;3.95;;;2.65;;
11488;SDS011;5801;50.804;12.638;2022-07-29T09:40:25;3.03;;;2.20;;
11488;SDS011;5801;50.804;12.638;2022-07-29T09:42:52;6.47;;;2.63;;
11488;SDS011;5801;50.804;12.638;2022-07-29T09:45:31;8.77;;;2.80;;
11488;SDS011;5801;50.804;12.638;2022-07-29T09:47:58;3.92;;;2.50;;
11488;SDS011;5801;50.804;12.638;2022-07-29T09:50:39;4.22;;;2.30;;
11488;SDS011;5801;50.804;12.638;2022-07-29T09:53:06;3.40;;;2.50;;
11488;SDS011;5801;50.804;12.638;2022-07-29T09:55:45;3.63;;;2.33;;
11488;SDS011;5801;50.804;12.638;2022-07-29T09:58:21;3.03;;;2.72;;
11488;SDS011;5801;50.804;12.638;2022-07-29T10:00:47;3.10;;;2.60;;
11488;SDS011;5801;50.804;12.638;2022-07-29T10:03:14;7.72;;;2.65;;
11488;SDS011;5801;50.804;12.638;2022-07-29T10:05:40;6.20;;;2.63;;
11488;SDS011;5801;50.804;12.638;2022-07-29T10:08:07;7.35;;;2.78;;
11488;SDS011;5801;50.804;12.638;2022-07-29T10:10:35;10.32;;;2.65;;
11488;SDS011;5801;50.804;12.638;2022-07-29T10:13:06;3.60;;;2.50;;
11488;SDS011;5801;50.804;12.638;2022-07-29T10:15:35;4.43;;;2.90;;
11488;SDS011;5801;50.804;12.638;2022-07-29T10:18:03;3.67;;;2.33;;
11488;SDS011;5801;50.804;12.638;2022-07-29T10:20:29;4.38;;;2.53;;
11488;SDS011;5801;50.804;12.638;2022-07-29T10:22:55;6.68;;;2.58;;
11488;SDS011;5801;50.804;12.638;2022-07-29T10:25:21;6.25;;;2.47;;
11488;SDS011;5801;50.804;12.638;2022-07-29T10:27:48;5.95;;;2.53;;
11488;SDS011;5801;50.804;12.638;2022-07-29T10:30:16;3.53;;;2.80;;
11488;SDS011;5801;50.804;12.638;2022-07-29T10:41:19;10.95;;;3.50;;
11488;SDS011;5801;50.804;12.638;2022-07-29T10:43:59;2.63;;;2.40;;
11488;SDS011;5801;50.804;12.638;2022-07-29T10:46:34;3.22;;;2.63;;
11488;SDS011;5801;50.804;12.638;2022-07-29T10:49:04;3.28;;;2.42;;
11488;SDS011;5801;50.804;12.638;2022-07-29T10:54:15;5.30;;;2.38;;
11488;SDS011;5801;50.804;12.638;2022-07-29T10:59:47;2.45;;;2.03;;
11488;SDS011;5801;50.804;12.638;2022-07-29T11:07:39;4.38;;;3.00;;
11488;SDS011;5801;50.804;12.638;2022-07-29T11:10:24;3.88;;;2.15;;
11488;SDS011;5801;50.804;12.638;2022-07-29T11:12:50;3.03;;;2.13;;
11488;SDS011;5801;50.804;12.638;2022-07-29T11:15:17;6.15;;;2.70;;
11488;SDS011;5801;50.804;12.638;2022-07-29T11:20:31;2.95;;;2.38;;
11488;SDS011;5801;50.804;12.638;2022-07-29T11:22:58;5.38;;;3.15;;
11488;SDS011;5801;50.804;12.638;2022-07-29T11:25:24;2.53;;;2.30;;
11488;SDS011;5801;50.804;12.638;2022-07-29T11:27:49;3.78;;;2.60;;
11488;SDS011;5801;50.804;12.638;2022-07-29T11:30:17;3.42;;;2.60;;
11488;SDS011;5801;50.804;12.638;2022-07-29T11:32:43;2.40;;;2.20;;
11488;SDS011;5801;50.804;12.638;2022-07-29T11:37:38;8.55;;;2.80;;
11488;SDS011;5801;50.804;12.638;2022-07-29T11:45:02;3.90;;;2.50;;
11488;SDS011;5801;50.804;12.638;2022-07-29T11:50:13;4.25;;;2.67;;
11488;SDS011;5801;50.804;12.638;2022-07-29T11:52:47;6.78;;;2.83;;
11488;SDS011;5801;50.804;12.638;2022-07-29T11:55:16;3.75;;;2.78;;
11488;SDS011;5801;50.804;12.638;2022-07-29T11:57:51;3.33;;;2.45;;
11488;SDS011;5801;50.804;12.638;2022-07-29T12:00:31;4.00;;;2.65;;
11488;SDS011;5801;50.804;12.638;2022-07-29T12:02:59;4.40;;;2.45;;
11488;SDS011;5801;50.804;12.638;2022-07-29T12:05:31;7.32;;;2.83;;
11488;SDS011;5801;50.804;12.638;2022-07-29T12:08:03;5.25;;;2.50;;
11488;SDS011;5801;50.804;12.638;2022-07-29T12:10:41;41.67;;;6.10;;
11488;SDS011;5801;50.804;12.638;2022-07-29T12:13:08;23.90;;;4.93;;
11488;SDS011;5801;50.804;12.638;2022-07-29T12:15:34;4.25;;;2.53;;
11488;SDS011;5801;50.804;12.638;2022-07-29T12:18:10;2.63;;;2.42;;
11488;SDS011;5801;50.804;12.638;2022-07-29T12:20:37;11.57;;;3.13;;
11488;SDS011;5801;50.804;12.638;2022-07-29T12:23:06;51.38;;;6.20;;
11488;SDS011;5801;50.804;12.638;2022-07-29T12:25:39;18.85;;;4.90;;
11488;SDS011;5801;50.804;12.638;2022-07-29T12:28:06;57.75;;;6.88;;
11488;SDS011;5801;50.804;12.638;2022-07-29T12:30:40;5.55;;;2.75;;
11488;SDS011;5801;50.804;12.638;2022-07-29T12:33:12;4.78;;;2.50;;
11488;SDS011;5801;50.804;12.638;2022-07-29T12:35:43;3.08;;;2.63;;
11488;SDS011;5801;50.804;12.638;2022-07-29T12:38:11;2.42;;;2.22;;
11488;SDS011;5801;50.804;12.638;2022-07-29T12:40:37;4.97;;;2.60;;
11488;SDS011;5801;50.804;12.638;2022-07-29T12:43:07;6.18;;;2.92;;
11488;SDS011;5801;50.804;12.638;2022-07-29T12:45:34;6.90;;;2.80;;
11488;SDS011;5801;50.804;12.638;2022-07-29T12:48:00;3.88;;;2.70;;
11488;SDS011;5801;50.804;12.638;2022-07-29T12:50:26;11.45;;;4.15;;
11488;SDS011;5801;50.804;12.638;2022-07-29T12:52:52;11.82;;;4.43;;
11488;SDS011;5801;50.804;12.638;2022-07-29T12:58:05;13.05;;;4.95;;
11488;SDS011;5801;50.804;12.638;2022-07-29T13:00:31;12.25;;;4.85;;
11488;SDS011;5801;50.804;12.638;2022-07-29T13:02:58;6.57;;;4.18;;
11488;SDS011;5801;50.804;12.638;2022-07-29T13:05:24;5.88;;;3.80;;
11488;SDS011;5801;50.804;12.638;2022-07-29T13:08:14;10.00;;;4.05;;
11488;SDS011;5801;50.804;12.638;2022-07-29T13:10:43;7.55;;;4.50;;
11488;SDS011;5801;50.804;12.638;2022-07-29T13:13:09;7.07;;;3.78;;
11488;SDS011;5801;50.804;12.638;2022-07-29T13:15:40;6.45;;;3.35;;
11488;SDS011;5801;50.804;12.638;2022-07-29T13:20:56;6.32;;;3.58;;
11488;SDS011;5801;50.804;12.638;2022-07-29T13:23:34;8.65;;;4.18;;
11488;SDS011;5801;50.804;12.638;2022-07-29T13:26:07;7.03;;;3.72;;
11488;SDS011;5801;50.804;12.638;2022-07-29T13:28:41;4.70;;;3.88;;
11488;SDS011;5801;50.804;12.638;2022-07-29T13:31:07;6.82;;;3.72;;
11488;SDS011;5801;50.804;12.638;2022-07-29T13:33:33;6.18;;;3.80;;
11488;SDS011;5801;50.804;12.638;2022-07-29T13:35:59;5.32;;;3.90;;
11488;SDS011;5801;50.804;12.638;2022-07-29T13:38:25;4.32;;;3.92;;
11488;SDS011;5801;50.804;12.638;2022-07-29T13:40:52;6.85;;;4.30;;
11488;SDS011;5801;50.804;12.638;2022-07-29T13:43:18;6.95;;;4.55;;
11488;SDS011;5801;50.804;12.638;2022-07-29T13:45:43;6.03;;;4.30;;
11488;SDS011;5801;50.804;12.638;2022-07-29T13:48:09;6.85;;;3.67;;
11488;SDS011;5801;50.804;12.638;2022-07-29T13:50:35;4.25;;;3.80;;
11488;SDS011;5801;50.804;12.638;2022-07-29T13:53:01;5.00;;;3.67;;
11488;SDS011;5801;50.804;12.638;2022-07-29T13:55:27;5.93;;;4.47;;
11488;SDS011;5801;50.804;12.638;2022-07-29T13:57:54;5.97;;;4.18;;
11488;SDS011;5801;50.804;12.638;2022-07-29T14:00:20;5.13;;;3.90;;
11488;SDS011;5801;50.804;12.638;2022-07-29T14:02:46;6.63;;;4.82;;
11488;SDS011;5801;50.804;12.638;2022-07-29T14:05:12;6.43;;;4.40;;
11488;SDS011;5801;50.804;12.638;2022-07-29T14:07:38;10.45;;;5.45;;
11488;SDS011;5801;50.804;12.638;2022-07-29T14:10:04;10.75;;;5.80;;
11488;SDS011;5801;50.804;12.638;2022-07-29T14:12:31;19.00;;;6.45;;
11488;SDS011;5801;50.804;12.638;2022-07-29T14:14:56;9.60;;;5.00;;
11488;SDS011;5801;50.804;12.638;2022-07-29T14:17:22;11.30;;;6.50;;
11488;SDS011;5801;50.804;12.638;2022-07-29T14:19:48;8.90;;;5.57;;
11488;SDS011;5801;50.804;12.638;2022-07-29T14:22:14;7.28;;;5.43;;
11488;SDS011;5801;50.804;12.638;2022-07-29T14:24:39;12.48;;;6.90;;
11488;SDS011;5801;50.804;12.638;2022-07-29T14:27:05;8.88;;;6.07;;
11488;SDS011;5801;50.804;12.638;2022-07-29T14:29:32;16.27;;;6.50;;
11488;SDS011;5801;50.804;12.638;2022-07-29T14:31:58;15.50;;;6.55;;
11488;SDS011;5801;50.804;12.638;2022-07-29T14:34:24;10.52;;;6.95;;
11488;SDS011;5801;50.804;12.638;2022-07-29T14:36:50;14.52;;;7.47;;
11488;SDS011;5801;50.804;12.638;2022-07-29T14:39:15;13.07;;;7.57;;
11488;SDS011;5801;50.804;12.638;2022-07-29T14:41:41;10.60;;;6.47;;
11488;SDS011;5801;50.804;12.638;2022-07-29T14:44:07;10.43;;;6.53;;
11488;SDS011;5801;50.804;12.638;2022-07-29T14:46:32;9.35;;;6.15;;
11488;SDS011;5801;50.804;12.638;2022-07-29T14:48:58;10.25;;;6.53;;
11488;SDS011;5801;50.804;12.638;2022-07-29T14:51:23;8.82;;;6.70;;
11488;SDS011;5801;50.804;12.638;2022-07-29T14:53:49;11.38;;;7.05;;
11488;SDS011;5801;50.804;12.638;2022-07-29T14:56:15;8.63;;;5.28;;
11488;SDS011;5801;50.804;12.638;2022-07-29T14:58:40;9.52;;;6.57;;
11488;SDS011;5801;50.804;12.638;2022-07-29T15:01:06;12.88;;;7.85;;
11488;SDS011;5801;50.804;12.638;2022-07-29T15:03:32;13.50;;;6.88;;
11488;SDS011;5801;50.804;12.638;2022-07-29T15:05:58;7.68;;;6.88;;
11488;SDS011;5801;50.804;12.638;2022-07-29T15:08:24;8.50;;;6.47;;
11488;SDS011;5801;50.804;12.638;2022-07-29T15:10:50;10.60;;;7.00;;
11488;SDS011;5801;50.804;12.638;2022-07-29T15:13:15;7.88;;;7.03;;
11488;SDS011;5801;50.804;12.638;2022-07-29T15:15:41;8.80;;;6.15;;
11488;SDS011;5801;50.804;12.638;2022-07-29T15:18:06;9.57;;;7.35;;
11488;SDS011;5801;50.804;12.638;2022-07-29T15:20:34;11.35;;;7.13;;
11488;SDS011;5801;50.804;12.638;2022-07-29T15:22:59;7.40;;;6.28;;
11488;SDS011;5801;50.804;12.638;2022-07-29T15:25:25;9.38;;;6.55;;
11488;SDS011;5801;50.804;12.638;2022-07-29T15:27:51;10.07;;;6.55;;
11488;SDS011;5801;50.804;12.638;2022-07-29T15:30:17;8.52;;;6.60;;